Historyczne dane pomiarowe

Dodano dane terminowe – wersja testowa.

Dane z okresu 1951-2019

Wersja bazy: 1.34 [2019-03-16, lista zmian], aktualizacja planowana na 2019-04-15

Dane meteo z obszaru Polski uzyskane na podstawie danych udostępnionych przez Instytut Meteorologii i Gospodarki Wodnej – Państwowy Instytut Badawczy.

 

Wybierz Datę:    

       

TemperaturaWilgotnośćWiatrCiśnienieOpadyŚniegCzas trwania zjawisk
 Stacja t tx tn tng RH VA  wxwx mslp ppp RRR   cm mm wxwxwxwxwxwxwx
1956-11-09 -5.2 -2.3 -8.6-12.1 65.8- 3.7 1.0---- 0.0------------
1956-11-08 -5.1 -1.1 -6.5 -9.0 72.0- 0.0 0.7---- 0.0------------
1956-11-07 -1.3 2.7 -3.5 -4.1 68.8- 4.3 3.7---- 0.0------------
1956-11-06 0.4 4.3 -0.5 -2.1 77.3- 4.3 6.0---- 0.0------------
1956-11-05 1.4 5.1 -4.1 -5.7 90.5- 6.3 2.3---- 2.3------------
1956-11-04 -1.2 2.5 -4.7 -7.2 81.5- 3.7 0.3---- 0.0------------
1956-11-03 -2.0 1.8 -3.7 -8.8 89.5- 4.7 1.0---- 0.0------------
1956-11-02 -0.4 4.9 -2.3 -1.5 85.5- 2.7 0.7---- 0.0-- 1---------
1956-11-01 -0.8 1.5 -7.1 -9.3 71.3- 4.3 5.0---- 0.7------------
1956-10-31 -5.3 -1.5 -7.5 -6.8 76.5- 2.3 2.0---- 0.0------------
1956-10-30 -0.7 5.9 -2.2 0.8 93.0- 7.7 3.0---- 0.3------------
1956-10-29 5.8 10.3 2.7 -1.9 83.8- 5.3 0.7---- 1.8------------
1956-10-28 10.1 11.0 9.0 8.3 95.8- 8.0 2.7---- 6.0------------
1956-10-27 9.2 10.8 5.6 2.9 88.3- 5.7 2.3---- 4.8------------
1956-10-26 9.3 13.7 2.8 -1.2 86.3- 4.3 0.7---- 0.0------------
1956-10-25 10.2 15.7 6.3 3.5 86.3- 0.0 1.3---- 0.0------------
1956-10-24 10.3 13.8 4.5 -2.1 86.5- 4.3 1.7---- 0.0------------
1956-10-23 9.6 11.2 7.6 5.7 82.8- 7.7 1.7---- 0.0------------
1956-10-22 9.9 13.2 8.4 6.8 91.0- 6.7 2.7---- 0.1------------
1956-10-21 12.1 14.7 8.5 6.3 88.3- 7.0 1.7---- 0.0------------
1956-10-20 8.8 12.2 5.6 2.9 91.3- 7.0 0.3---- 0.0------------
1956-10-19 10.4 12.2 9.0 7.8 93.3- 7.3 2.3---- 3.5------------
1956-10-18 8.4 11.6 0.3 -3.9 84.5- 6.3 1.3---- 1.2------------
1956-10-17 4.4 10.3 -0.7 -5.3 79.3- 0.0 0.3---- 0.0------------
1956-10-16 3.8 9.3 0.1 -2.7 86.5- 4.3 0.3---- 0.0------------
1956-10-15 5.4 10.3 1.6 -0.5 80.5- 1.3 1.3---- 0.0------------
1956-10-14 7.4 10.3 5.9 5.9 74.0- 4.0 4.3---- 0.7------------
1956-10-13 9.9 11.2 7.4 5.3 83.5- 8.0 6.3---- 9.4------------
1956-10-12 9.2 11.0 7.8 6.8 85.3- 6.7 4.7---- 0.0------------
1956-10-11 7.6 9.8 2.0 0.5 78.3- 7.0 3.7---- 0.0------------
1956-10-10 3.2 7.3 -0.2 -3.3 78.5- 2.0 1.0---- 0.0------------
1956-10-09 6.0 10.3 0.8 -2.6 87.0- 4.7 2.3---- 0.5------------
1956-10-08 5.1 8.8 2.6 1.2 82.8- 3.7 1.3---- 0.0------------
1956-10-07 6.2 9.5 0.7 0.0 84.8- 6.3 9.3---- 5.1------------
1956-10-06 9.4 10.8 8.5 5.9 96.0- 8.0 0.7---- 30.9------------
1956-10-05 11.2 15.2 8.8 5.7 82.0- 4.7 1.3---- 0.6------------
1956-10-04 8.9 12.6 5.9 2.0 95.3- 7.7 0.3---- 5.5------------
1956-10-03 15.2 21.2 12.0 10.6 73.0- 5.0 2.3---- 0.0------------
1956-10-02 17.4 24.6 11.0 5.4 71.3- 1.0 2.3---- 0.0------------
1956-10-01 15.0 22.2 5.1 0.2 81.0- 2.0 1.0---- 0.0------------
1956-09-30 11.8 18.0 8.8 8.6 86.3- 0.0 0.7---- 0.0------------
1956-09-29 17.1 21.7 12.0 8.8 76.3- 7.0 2.7---- 0.0------------
1956-09-28 14.4 20.2 12.0 7.4 83.3- 3.3 1.7---- 0.0------------
1956-09-27 14.4 21.0 5.5 0.6 67.0- 1.3 2.3---- 0.0------------
1956-09-26 12.0 20.2 4.6 -0.8 75.0- 0.0 1.0---- 0.0------------
1956-09-25 10.2 17.7 2.0 -1.5 83.3- 0.7 1.7---- 0.0------------
1956-09-24 6.8 13.2 2.6 -0.4 71.5- 0.0 1.7---- 0.0------------
1956-09-23 9.4 14.2 7.5 5.4 83.0- 3.3 2.3---- 0.0------------
1956-09-22 11.3 18.2 4.4 0.2 82.0- 0.0 0.7---- 0.0------------
1956-09-21 10.3 18.2 4.2 -0.6 84.3- 0.0 0.3---- 0.0------------
1956-09-20 9.2 15.4 2.8 -1.6 84.8- 4.0 1.0---- 0.0------------
1956-09-19 8.2 15.2 1.5 -1.6 80.5- 2.0 0.0---- 0.0------------
1956-09-18 7.0 11.7 4.7 2.9 87.5- 5.0 1.0---- 0.0------------
1956-09-17 8.9 13.2 7.1 6.4 81.8- 4.3 2.3---- 1.8------------
1956-09-16 9.9 12.4 6.7 4.5 83.0- 7.3 3.0---- 0.0------------
1956-09-15 10.6 14.8 5.6 0.2 81.3- 4.0 1.7---- 0.0------------
1956-09-14 9.8 13.7 7.1 4.3 79.8- 4.7 2.0---- 0.0------------
1956-09-13 8.2 12.7 7.1 5.4 87.3- 4.7 1.3---- 3.2------------
1956-09-12 10.9 14.2 8.6 8.8 96.3- 5.3 2.0---- 16.9------------
1956-09-11 12.4 13.6 11.6 9.3 94.5- 8.0 1.3---- 10.2------------
284.0 ms

 

Źródłem pochodzenia danych jest Instytut Meteorologii i Gospodarki Wodnej – Państwowy Instytut Badawczy. Dane Instytutu Meteorologii i Gospodarki Wodnej – Państwowego Instytutu Badawczego zostały przetworzone.

Dane źródłowe można odnaleźć na stronie https://dane.imgw.pl